createdAt,value
2022-12-02T00:02:28.062Z,-5.06
2022-12-02T00:05:04.279Z,-5.07
2022-12-02T00:07:37.238Z,-5.06
2022-12-02T00:10:24.223Z,-5.07
2022-12-02T00:13:02.158Z,-5.06
2022-12-02T00:15:39.117Z,-5.06
2022-12-02T00:18:14.857Z,-5.08
2022-12-02T00:20:47.546Z,-5.05
2022-12-02T00:23:20.277Z,-5.07
2022-12-02T00:25:54.388Z,-5.01
2022-12-02T00:28:26.862Z,-5.03
2022-12-02T00:30:59.354Z,-4.99
2022-12-02T00:33:33.398Z,-4.96
2022-12-02T00:36:06.390Z,-4.94
2022-12-02T00:38:38.897Z,-4.93
2022-12-02T00:41:11.463Z,-4.93
2022-12-02T00:44:02.611Z,-4.93
2022-12-02T00:46:35.386Z,-4.91
2022-12-02T00:49:11.434Z,-4.96
2022-12-02T00:51:45.336Z,-4.91
2022-12-02T00:54:18.267Z,-4.91
2022-12-02T00:56:51.082Z,-4.91
2022-12-02T00:59:23.822Z,-4.90
2022-12-02T01:01:56.362Z,-4.89
2022-12-02T01:04:31.927Z,-4.88
2022-12-02T01:07:04.370Z,-4.86
2022-12-02T01:09:36.889Z,-4.84
2022-12-02T01:12:09.479Z,-4.83
2022-12-02T01:14:42.083Z,-4.84
2022-12-02T01:17:14.536Z,-4.84
2022-12-02T01:19:48.433Z,-4.85
2022-12-02T01:22:20.993Z,-4.86
2022-12-02T01:24:53.633Z,-4.84
2022-12-02T01:27:26.221Z,-4.84
2022-12-02T01:29:58.889Z,-4.89
2022-12-02T01:32:31.412Z,-4.84
2022-12-02T01:35:06.420Z,-4.82
2022-12-02T01:37:57.705Z,-4.83
2022-12-02T01:40:49.140Z,-4.80
2022-12-02T01:43:40.600Z,-4.85
2022-12-02T01:46:31.377Z,-4.76
2022-12-02T01:49:23.165Z,-4.77
2022-12-02T01:52:15.896Z,-4.75
2022-12-02T01:55:12.187Z,-4.72
2022-12-02T01:58:04.284Z,-4.70
2022-12-02T02:00:56.492Z,-4.71
2022-12-02T02:03:48.446Z,-4.71
2022-12-02T02:06:43.519Z,-4.71
2022-12-02T02:09:36.334Z,-4.68
2022-12-02T02:12:09.134Z,-4.67
2022-12-02T02:14:41.943Z,-4.67
2022-12-02T02:17:14.553Z,-4.71
2022-12-02T02:19:47.341Z,-4.66
2022-12-02T02:22:24.644Z,-4.68
2022-12-02T02:24:59.638Z,-4.67
2022-12-02T02:27:33.951Z,-4.66
2022-12-02T02:30:08.026Z,-4.69
2022-12-02T02:32:40.713Z,-4.67
2022-12-02T02:35:13.805Z,-4.67
2022-12-02T02:37:47.380Z,-4.66
2022-12-02T02:40:24.602Z,-4.66
2022-12-02T02:43:02.047Z,-4.64
2022-12-02T02:45:36.677Z,-4.63
2022-12-02T02:48:13.124Z,-4.69
2022-12-02T02:50:47.509Z,-4.68
2022-12-02T02:53:41.300Z,-4.64
2022-12-02T02:56:17.024Z,-4.63
2022-12-02T02:58:50.416Z,-4.64
2022-12-02T03:01:26.777Z,-4.65
2022-12-02T03:04:02.959Z,-4.66
2022-12-02T03:06:37.660Z,-4.66
2022-12-02T03:09:13.096Z,-4.66
2022-12-02T03:11:50.034Z,-4.65
2022-12-02T03:14:23.022Z,-4.66
2022-12-02T03:16:56.079Z,-4.66
2022-12-02T03:19:30.516Z,-4.65
2022-12-02T03:22:04.023Z,-4.67
2022-12-02T03:24:37.583Z,-4.62
2022-12-02T03:27:11.718Z,-4.61
2022-12-02T03:29:45.689Z,-4.61
2022-12-02T03:32:19.408Z,-4.60
2022-12-02T03:34:52.032Z,-4.60
2022-12-02T03:37:24.831Z,-4.59
2022-12-02T03:39:57.607Z,-4.59
2022-12-02T03:42:31.654Z,-4.58
2022-12-02T03:45:05.262Z,-4.56
2022-12-02T03:47:37.910Z,-4.56
2022-12-02T03:50:12.114Z,-4.59
2022-12-02T03:52:44.806Z,-4.54
2022-12-02T03:55:17.426Z,-4.53
2022-12-02T03:57:51.259Z,-4.54
2022-12-02T04:00:23.970Z,-4.52
2022-12-02T04:02:56.643Z,-4.52
2022-12-02T04:05:29.304Z,-4.54
2022-12-02T04:08:01.954Z,-4.52
2022-12-02T04:10:34.556Z,-4.50
2022-12-02T04:13:08.596Z,-4.52
2022-12-02T04:15:41.081Z,-4.53
2022-12-02T04:18:13.578Z,-4.52
2022-12-02T04:20:46.212Z,-4.52
2022-12-02T04:23:18.881Z,-4.51
2022-12-02T04:25:51.407Z,-4.50
2022-12-02T04:28:25.707Z,-4.50
2022-12-02T04:30:58.398Z,-4.48
2022-12-02T04:33:31.178Z,-4.47
2022-12-02T04:36:04.755Z,-4.48
2022-12-02T04:38:37.203Z,-4.45
2022-12-02T04:41:09.777Z,-4.43
2022-12-02T04:43:43.833Z,-4.45
2022-12-02T04:46:16.346Z,-4.40
2022-12-02T04:48:48.837Z,-4.39
2022-12-02T04:51:21.393Z,-4.38
2022-12-02T04:53:53.927Z,-4.38
2022-12-02T04:56:26.357Z,-4.37
2022-12-02T04:59:00.919Z,-4.37
2022-12-02T05:01:33.503Z,-4.35
2022-12-02T05:04:06.120Z,-4.37
2022-12-02T05:06:38.576Z,-4.35
2022-12-02T05:09:11.466Z,-4.34
2022-12-02T05:11:44.100Z,-4.36
2022-12-02T05:14:18.002Z,-4.35
2022-12-02T05:16:50.508Z,-4.35
2022-12-02T05:19:22.927Z,-4.36
2022-12-02T05:21:55.396Z,-4.36
2022-12-02T05:24:35.292Z,-4.36
2022-12-02T05:27:07.737Z,-4.36
2022-12-02T05:29:43.871Z,-4.35
2022-12-02T05:32:16.402Z,-4.33
2022-12-02T05:34:49.222Z,-4.33
2022-12-02T05:37:21.900Z,-4.40
2022-12-02T05:39:54.522Z,-4.35
2022-12-02T05:42:28.263Z,-4.36
2022-12-02T05:45:13.573Z,-4.36
2022-12-02T05:47:49.295Z,-4.34
2022-12-02T05:50:22.674Z,-4.34
2022-12-02T05:53:00.965Z,-4.34
2022-12-02T05:55:36.742Z,-4.33
2022-12-02T05:58:12.600Z,-4.34
2022-12-02T06:00:49.624Z,-4.34
2022-12-02T06:03:22.818Z,-4.32
2022-12-02T06:05:55.601Z,-4.30
2022-12-02T06:08:36.447Z,-4.31
2022-12-02T06:11:28.809Z,-4.30
2022-12-02T06:14:06.742Z,-4.29
2022-12-02T06:16:44.604Z,-4.29
2022-12-02T06:19:23.485Z,-4.28
2022-12-02T06:21:59.570Z,-4.26
2022-12-02T06:24:34.745Z,-4.28
2022-12-02T06:27:12.655Z,-4.26
2022-12-02T06:29:49.781Z,-4.24
2022-12-02T06:32:46.986Z,-4.26
2022-12-02T06:35:38.172Z,-4.28
2022-12-02T06:38:32.087Z,-4.37
2022-12-02T06:41:25.829Z,-4.23
2022-12-02T06:44:39.227Z,-4.22
2022-12-02T06:47:51.553Z,-4.23
2022-12-02T06:50:27.891Z,-4.20
2022-12-02T06:53:12.960Z,-4.24
2022-12-02T06:55:45.462Z,-4.14
2022-12-02T06:58:29.126Z,-4.11
2022-12-02T07:01:24.430Z,-4.14
2022-12-02T07:04:21.022Z,-4.10
2022-12-02T07:06:58.312Z,-4.09
2022-12-02T07:09:37.999Z,-4.08
2022-12-02T07:12:15.078Z,-4.06
2022-12-02T07:14:49.753Z,-4.03
2022-12-02T07:17:26.266Z,-3.99
2022-12-02T07:20:03.191Z,-3.96
2022-12-02T07:22:40.895Z,-3.93
2022-12-02T07:25:32.010Z,-3.92
2022-12-02T07:28:26.345Z,-3.93
2022-12-02T07:31:01.142Z,-3.85
2022-12-02T07:33:33.768Z,-3.82
2022-12-02T07:36:08.107Z,-3.84
2022-12-02T07:39:05.127Z,-3.77
2022-12-02T07:41:36.841Z,-3.75
2022-12-02T07:44:09.998Z,-3.71
2022-12-02T07:46:45.485Z,-3.69
2022-12-02T07:49:36.669Z,-3.65
2022-12-02T07:52:29.431Z,-3.63
2022-12-02T07:55:26.042Z,-3.60
2022-12-02T07:58:17.524Z,-3.58
2022-12-02T08:01:08.422Z,-3.56
2022-12-02T08:03:59.859Z,-3.59
2022-12-02T08:06:51.243Z,-3.53
2022-12-02T08:09:44.181Z,-3.48
2022-12-02T08:12:35.611Z,-3.47
2022-12-02T08:15:26.718Z,-3.44
2022-12-02T08:18:18.001Z,-3.43
2022-12-02T08:21:09.685Z,-3.39
2022-12-02T08:24:03.120Z,-3.34
2022-12-02T08:26:55.447Z,-3.30
2022-12-02T08:29:46.289Z,-3.29
2022-12-02T08:32:37.452Z,-3.26
2022-12-02T08:35:28.577Z,-3.23
2022-12-02T08:38:20.233Z,-3.24
2022-12-02T08:41:13.913Z,-3.18
2022-12-02T08:44:07.078Z,-3.20
2022-12-02T08:46:58.119Z,-3.13
2022-12-02T08:49:50.521Z,-3.18
2022-12-02T08:52:41.811Z,-3.08
2022-12-02T08:55:14.321Z,-3.19
2022-12-02T08:57:46.966Z,-3.05
2022-12-02T09:00:21.804Z,-3.05
2022-12-02T09:02:54.566Z,-3.03
2022-12-02T09:05:27.174Z,-3.01
2022-12-02T09:08:00.110Z,-2.98
2022-12-02T09:10:32.920Z,-2.96
2022-12-02T09:13:05.433Z,-2.93
2022-12-02T09:15:39.427Z,-2.95
2022-12-02T09:18:14.539Z,-2.91
2022-12-02T09:20:48.547Z,-2.90
2022-12-02T09:23:25.463Z,-2.88
2022-12-02T09:25:57.976Z,-2.84
2022-12-02T09:28:30.629Z,-2.82
2022-12-02T09:31:04.705Z,-2.78
2022-12-02T09:33:39.399Z,-2.73
2022-12-02T09:36:11.906Z,-2.68
2022-12-02T09:38:44.520Z,-2.71
2022-12-02T09:41:17.247Z,-2.62
2022-12-02T09:43:50.593Z,-2.63
2022-12-02T09:46:25.716Z,-2.59
2022-12-02T09:49:04.259Z,-2.62
2022-12-02T09:52:00.031Z,-2.59
2022-12-02T09:54:32.756Z,-2.61
2022-12-02T09:57:27.625Z,-2.60
2022-12-02T10:00:02.336Z,-2.58
2022-12-02T10:02:41.330Z,-2.57
2022-12-02T10:05:16.546Z,-2.55
2022-12-02T10:07:50.459Z,-2.54
2022-12-02T10:10:26.168Z,-2.54
2022-12-02T10:13:01.847Z,-2.55
2022-12-02T10:15:59.699Z,-2.53
2022-12-02T10:18:34.413Z,-2.50
2022-12-02T10:21:07.167Z,-2.50
2022-12-02T10:23:54.790Z,-2.53
2022-12-02T10:26:28.342Z,-2.52
2022-12-02T10:29:04.693Z,-2.49
2022-12-02T10:31:37.217Z,-2.48
2022-12-02T10:34:20.371Z,-2.51
2022-12-02T10:36:53.351Z,-2.47
2022-12-02T10:39:32.731Z,-2.47
2022-12-02T10:42:21.689Z,-2.48
2022-12-02T10:45:10.975Z,-2.46
2022-12-02T10:47:43.496Z,-2.44
2022-12-02T10:50:20.814Z,-2.44
2022-12-02T10:52:57.504Z,-2.43
2022-12-02T10:55:30.545Z,-2.42
2022-12-02T10:58:03.233Z,-2.40
2022-12-02T11:00:39.554Z,-2.39
2022-12-02T11:03:15.016Z,-2.39
2022-12-02T11:05:49.240Z,-2.36
2022-12-02T11:08:42.846Z,-2.33
2022-12-02T11:11:17.878Z,-2.37
2022-12-02T11:13:56.314Z,-2.33
2022-12-02T11:17:06.598Z,-2.31
2022-12-02T11:19:46.919Z,-2.34
2022-12-02T11:23:01.458Z,-2.27
2022-12-02T11:26:06.578Z,-2.27
2022-12-02T11:29:03.994Z,-2.26
2022-12-02T11:31:36.573Z,-2.38
2022-12-02T11:35:15.187Z,-2.30
2022-12-02T11:37:44.273Z,-2.28
2022-12-02T11:40:59.478Z,-2.26
2022-12-02T11:43:53.387Z,-2.26
2022-12-02T11:46:41.775Z,-2.26
2022-12-02T11:49:30.693Z,-2.28
2022-12-02T11:52:25.240Z,-2.31
2022-12-02T11:55:12.109Z,-2.35
2022-12-02T11:57:48.432Z,-2.25
2022-12-02T12:00:34.009Z,-2.23
2022-12-02T12:03:15.064Z,-2.24
2022-12-02T12:06:07.180Z,-2.24
2022-12-02T12:08:43.017Z,-2.29
2022-12-02T12:11:18.580Z,-2.26
2022-12-02T12:14:23.803Z,-2.26
2022-12-02T12:17:42.902Z,-2.28
2022-12-02T12:20:47.143Z,-2.28
2022-12-02T12:23:41.885Z,-2.29
2022-12-02T12:26:34.660Z,-2.34
2022-12-02T12:29:28.063Z,-2.32
2022-12-02T12:32:20.587Z,-2.33
2022-12-02T12:35:11.623Z,-2.33
2022-12-02T12:38:02.447Z,-2.34
2022-12-02T12:40:54.889Z,-2.35
2022-12-02T12:43:46.246Z,-2.35
2022-12-02T12:46:38.064Z,-2.35
2022-12-02T12:49:31.201Z,-2.37
2022-12-02T12:52:12.899Z,-2.39
2022-12-02T12:55:05.317Z,-2.38
2022-12-02T12:57:56.585Z,-2.41
2022-12-02T13:00:47.745Z,-2.43
2022-12-02T13:03:39.242Z,-2.45
2022-12-02T13:06:31.882Z,-2.46
2022-12-02T13:09:23.089Z,-2.46
2022-12-02T13:12:14.289Z,-2.47
2022-12-02T13:15:06.281Z,-2.48
2022-12-02T13:17:57.393Z,-2.49
2022-12-02T13:20:49.054Z,-2.56
2022-12-02T13:23:41.780Z,-2.51
2022-12-02T13:26:32.784Z,-2.53
2022-12-02T13:29:23.727Z,-2.53
2022-12-02T13:32:15.099Z,-2.56
2022-12-02T13:35:06.637Z,-2.57
2022-12-02T13:37:57.542Z,-2.55
2022-12-02T13:40:52.285Z,-2.56
2022-12-02T13:43:43.714Z,-2.58
2022-12-02T13:46:34.862Z,-2.54
2022-12-02T13:49:26.161Z,-2.63
2022-12-02T13:51:58.773Z,-2.55
2022-12-02T13:54:31.620Z,-2.55
2022-12-02T13:57:05.611Z,-2.54
2022-12-02T13:59:38.791Z,-2.54
2022-12-02T14:02:12.310Z,-2.57
2022-12-02T14:04:44.948Z,-2.54
2022-12-02T14:07:18.654Z,-2.56
2022-12-02T14:09:51.151Z,-2.54
2022-12-02T14:12:25.324Z,-2.54
2022-12-02T14:14:57.855Z,-2.56
2022-12-02T14:17:30.390Z,-2.61
2022-12-02T14:20:02.810Z,-2.63
2022-12-02T14:22:35.688Z,-2.64
2022-12-02T14:25:08.588Z,-2.62
2022-12-02T14:27:42.964Z,-2.63
2022-12-02T14:30:15.723Z,-2.66
2022-12-02T14:32:48.447Z,-2.65
2022-12-02T14:35:39.796Z,-2.69
2022-12-02T14:38:31.230Z,-2.66
2022-12-02T14:41:22.649Z,-2.66
2022-12-02T14:44:15.148Z,-2.76
2022-12-02T14:47:06.347Z,-2.71
2022-12-02T14:49:40.639Z,-2.71
2022-12-02T14:52:13.797Z,-2.71
2022-12-02T14:54:46.366Z,-2.70
2022-12-02T14:57:18.885Z,-2.70
2022-12-02T14:59:52.780Z,-2.71
2022-12-02T15:02:25.455Z,-2.73
2022-12-02T15:04:58.070Z,-2.73
2022-12-02T15:07:30.701Z,-2.73
2022-12-02T15:10:03.688Z,-2.75
2022-12-02T15:12:36.319Z,-2.77
2022-12-02T15:15:38.710Z,-2.77
2022-12-02T15:18:31.292Z,-2.78
2022-12-02T15:21:03.784Z,-2.78
2022-12-02T15:23:36.309Z,-2.78
2022-12-02T15:26:09.005Z,-2.78
2022-12-02T15:28:41.573Z,-2.81
2022-12-02T15:31:19.034Z,-2.85
2022-12-02T15:33:51.815Z,-2.87
2022-12-02T15:36:24.429Z,-2.89
2022-12-02T15:38:56.961Z,-2.91
2022-12-02T15:41:29.671Z,-2.95
2022-12-02T15:44:02.232Z,-2.95
2022-12-02T15:46:36.211Z,-3.00
2022-12-02T15:49:08.911Z,-3.00
2022-12-02T15:51:41.454Z,-2.99
2022-12-02T15:54:14.096Z,-2.99
2022-12-02T15:56:49.120Z,-3.03
2022-12-02T15:59:25.697Z,-3.05
2022-12-02T16:01:59.598Z,-3.03
2022-12-02T16:04:33.078Z,-3.06
2022-12-02T16:07:05.563Z,-3.07
2022-12-02T16:09:38.270Z,-3.09
2022-12-02T16:12:10.779Z,-3.12
2022-12-02T16:14:44.690Z,-3.14
2022-12-02T16:17:18.715Z,-3.21
2022-12-02T16:19:51.303Z,-3.15
2022-12-02T16:22:23.898Z,-3.08
2022-12-02T16:24:56.409Z,-3.06
2022-12-02T16:27:29.057Z,-3.08
2022-12-02T16:30:01.774Z,-3.06
2022-12-02T16:32:37.671Z,-3.06
2022-12-02T16:35:10.618Z,-3.06
2022-12-02T16:37:43.143Z,-3.05
2022-12-02T16:40:15.843Z,-3.07
2022-12-02T16:42:48.355Z,-3.06
2022-12-02T16:45:20.795Z,-3.08
2022-12-02T16:47:54.778Z,-3.09
2022-12-02T16:50:27.316Z,-3.07
2022-12-02T16:52:59.799Z,-3.07
2022-12-02T16:55:32.320Z,-3.07
2022-12-02T16:58:04.995Z,-3.10
2022-12-02T17:00:37.635Z,-3.07
2022-12-02T17:03:11.653Z,-3.07
2022-12-02T17:05:44.405Z,-3.09
2022-12-02T17:08:17.058Z,-3.10
2022-12-02T17:10:49.796Z,-3.12
2022-12-02T17:13:22.309Z,-3.12
2022-12-02T17:15:55.596Z,-3.15
2022-12-02T17:18:29.597Z,-3.16
2022-12-02T17:21:02.164Z,-3.17
2022-12-02T17:23:34.607Z,-3.18
2022-12-02T17:26:07.089Z,-3.18
2022-12-02T17:28:39.678Z,-3.20
2022-12-02T17:31:12.444Z,-3.15
2022-12-02T17:33:46.283Z,-3.19
2022-12-02T17:36:18.866Z,-3.15
2022-12-02T17:38:55.980Z,-3.13
2022-12-02T17:41:31.394Z,-3.15
2022-12-02T17:44:03.857Z,-3.15
2022-12-02T17:46:36.557Z,-3.15
2022-12-02T17:49:10.718Z,-3.14
2022-12-02T17:52:00.654Z,-3.15
2022-12-02T17:54:35.661Z,-3.15
2022-12-02T17:57:08.181Z,-3.18
2022-12-02T17:59:40.863Z,-3.22
2022-12-02T18:02:13.682Z,-3.19
2022-12-02T18:04:47.707Z,-3.20
2022-12-02T18:07:20.274Z,-3.21
2022-12-02T18:09:52.752Z,-3.26
2022-12-02T18:12:25.333Z,-3.21
2022-12-02T18:14:57.815Z,-3.27
2022-12-02T18:17:30.410Z,-3.29
2022-12-02T18:20:05.292Z,-3.22
2022-12-02T18:22:37.829Z,-3.42
2022-12-02T18:25:10.350Z,-3.25
2022-12-02T18:27:42.844Z,-3.25
2022-12-02T18:30:17.672Z,-3.30
2022-12-02T18:32:50.559Z,-3.26
2022-12-02T18:35:26.101Z,-3.28
2022-12-02T18:37:58.562Z,-3.29
2022-12-02T18:40:31.127Z,-3.31
2022-12-02T18:43:05.263Z,-3.32
2022-12-02T18:45:39.593Z,-3.37
2022-12-02T18:48:12.139Z,-3.42
2022-12-02T18:50:46.070Z,-3.37
2022-12-02T18:53:18.760Z,-3.44
2022-12-02T18:55:51.326Z,-3.40
2022-12-02T18:58:23.862Z,-3.41
2022-12-02T19:00:56.528Z,-3.43
2022-12-02T19:03:29.331Z,-3.44
2022-12-02T19:06:03.192Z,-3.48
2022-12-02T19:08:35.771Z,-3.46
2022-12-02T19:11:08.280Z,-3.49
2022-12-02T19:13:41.051Z,-3.50
2022-12-02T19:16:13.488Z,-3.52
2022-12-02T19:18:45.983Z,-3.53
2022-12-02T19:21:24.500Z,-3.57
2022-12-02T19:23:57.942Z,-3.56
2022-12-02T19:26:30.294Z,-3.56
2022-12-02T19:29:02.803Z,-3.56
2022-12-02T19:31:38.436Z,-3.58
2022-12-02T19:34:15.202Z,-3.59
2022-12-02T19:36:49.030Z,-3.60
2022-12-02T19:39:21.531Z,-3.61
2022-12-02T19:41:54.111Z,-3.64
2022-12-02T19:44:26.699Z,-3.66
2022-12-02T19:46:59.241Z,-3.70
2022-12-02T19:49:31.692Z,-3.69
2022-12-02T19:52:05.852Z,-3.72
2022-12-02T19:54:38.462Z,-3.71
2022-12-02T19:57:10.855Z,-3.71
2022-12-02T19:59:43.264Z,-3.76
2022-12-02T20:02:15.971Z,-3.73
2022-12-02T20:04:48.788Z,-3.79
2022-12-02T20:07:22.958Z,-3.81
2022-12-02T20:09:55.407Z,-3.79
2022-12-02T20:12:27.860Z,-3.80
2022-12-02T20:15:00.487Z,-3.81
2022-12-02T20:17:32.942Z,-3.83
2022-12-02T20:20:07.072Z,-3.83
2022-12-02T20:22:41.530Z,-3.83
2022-12-02T20:25:14.300Z,-3.89
2022-12-02T20:27:52.752Z,-3.82
2022-12-02T20:30:26.961Z,-3.82
2022-12-02T20:32:59.493Z,-3.89
2022-12-02T20:35:32.021Z,-3.93
2022-12-02T20:38:05.859Z,-3.92
2022-12-02T20:40:38.301Z,-3.94
2022-12-02T20:43:11.100Z,-3.96
2022-12-02T20:45:43.586Z,-4.04
2022-12-02T20:48:15.982Z,-3.99
2022-12-02T20:50:48.388Z,-4.02
2022-12-02T20:53:22.461Z,-4.05
2022-12-02T20:55:54.973Z,-4.04
2022-12-02T20:58:27.718Z,-4.09
2022-12-02T21:01:00.236Z,-4.07
2022-12-02T21:03:32.848Z,-4.15
2022-12-02T21:06:05.652Z,-4.16
2022-12-02T21:08:39.557Z,-4.12
2022-12-02T21:11:12.019Z,-4.16
2022-12-02T21:13:45.812Z,-4.16
2022-12-02T21:16:18.575Z,-4.18
2022-12-02T21:18:51.068Z,-4.20
2022-12-02T21:21:23.765Z,-4.19
2022-12-02T21:24:03.332Z,-4.19
2022-12-02T21:26:36.655Z,-4.22
2022-12-02T21:29:09.518Z,-4.23
2022-12-02T21:31:42.166Z,-4.25
2022-12-02T21:34:14.747Z,-4.28
2022-12-02T21:36:47.336Z,-4.30
2022-12-02T21:39:21.270Z,-4.32
2022-12-02T21:41:53.690Z,-4.36
2022-12-02T21:44:26.281Z,-4.36
2022-12-02T21:46:58.868Z,-4.41
2022-12-02T21:49:31.342Z,-4.40
2022-12-02T21:52:03.772Z,-4.40
2022-12-02T21:54:37.704Z,-4.40
2022-12-02T21:57:10.370Z,-4.41
2022-12-02T21:59:43.276Z,-4.40
2022-12-02T22:02:16.381Z,-4.42
2022-12-02T22:04:48.981Z,-4.46
2022-12-02T22:07:40.162Z,-4.48
2022-12-02T22:10:16.886Z,-4.50
2022-12-02T22:12:50.013Z,-4.52
2022-12-02T22:15:23.217Z,-4.53
2022-12-02T22:17:55.798Z,-4.57
2022-12-02T22:20:28.381Z,-4.58
2022-12-02T22:23:00.724Z,-4.59
2022-12-02T22:25:34.644Z,-4.59
2022-12-02T22:28:07.492Z,-4.61
2022-12-02T22:30:39.823Z,-4.62
2022-12-02T22:33:12.263Z,-4.61
2022-12-02T22:35:44.818Z,-4.60
2022-12-02T22:38:17.394Z,-4.63
2022-12-02T22:40:51.154Z,-4.64
2022-12-02T22:43:23.836Z,-4.68
2022-12-02T22:45:56.623Z,-4.69
2022-12-02T22:48:29.276Z,-4.68
2022-12-02T22:51:01.867Z,-4.70
2022-12-02T22:53:34.528Z,-4.68
2022-12-02T22:56:08.545Z,-4.67
2022-12-02T22:58:41.069Z,-4.75
2022-12-02T23:01:13.554Z,-4.69
2022-12-02T23:03:46.160Z,-4.73
2022-12-02T23:06:18.716Z,-4.72
2022-12-02T23:08:51.391Z,-4.73
2022-12-02T23:11:25.278Z,-4.74
2022-12-02T23:13:57.776Z,-4.76
2022-12-02T23:16:30.388Z,-4.76
2022-12-02T23:19:03.025Z,-4.77
2022-12-02T23:21:37.039Z,-4.77
2022-12-02T23:24:09.495Z,-4.78
2022-12-02T23:26:43.438Z,-4.90
2022-12-02T23:29:16.054Z,-4.83
2022-12-02T23:31:48.569Z,-4.81
2022-12-02T23:34:21.059Z,-4.82
2022-12-02T23:36:53.992Z,-4.83
2022-12-02T23:39:26.658Z,-4.85
2022-12-02T23:42:00.517Z,-4.91
2022-12-02T23:44:32.948Z,-4.94
2022-12-02T23:47:05.574Z,-4.93
2022-12-02T23:49:38.187Z,-4.92
2022-12-02T23:52:10.598Z,-4.94
2022-12-02T23:54:43.138Z,-5.05
2022-12-02T23:57:17.643Z,-4.98
2022-12-02T23:59:50.818Z,-5.07
